Station KSPR - Ship Shoal 178 (Apache Corp) Image indicating link to RSS feed of recent meteorological observations for station KSPR


Conditions at KSPR as of
(9:55 am CDT)
1455 GMT on 05/02/2026:
     

Click on the graph icon in the table below to see a time series plot of the last five days of that observation.

5-day plot - Wind Direction Wind Direction (WDIR): NE ( 50 deg true )
5-day plot - Wind Speed Wind Speed (WSPD): 14.0 kts
5-day plot - Wind Gust Wind Gust (GST): 21.0 kts
5-day plot - Air Temperature Air Temperature (ATMP): 62.6 °F
5-day plot - Dew Point Dew Point (DEWP): 57.2 °F
5-day plot - Visibility Visibility (VIS): 8.7 nmi
5-day plot -  Wind Speed, Wind Gust and Atmospheric Pressure Combined plot of Wind Speed, Gust, and Air Pressure
Previous observations
TIME
(CDT)
5-day plot - Wind Direction
WDIR
 
5-day plot - Wind Speed
WSPD
kts
5-day plot - Wind Gust
GST
kts
5-day plot - Wave Height
WVHT
ft
5-day plot - Dominant Wave Period
DPD
sec
5-day plot - Average Wave Period
APD
sec
5-day plot - Mean Wave Direction
MWD
 
5-day plot - Atmospheric Pressure
PRES
in
5-day plot - Pressure Tendency
PTDY
in
5-day plot - Air Temperature
ATMP
°F
5-day plot - Water Temperature
WTMP
°F
5-day plot - Dew Point
DEWP
°F
5-day plot - Salinity
SAL
psu
5-day plot - Visibility
VIS
nmi
5-day plot - Tide (above MLLW)
TIDE
ft
2026-05-02 09:35 am NE 15.9 22.9------ 62.6- 55.4- 8.7-
2026-05-02 09:15 am NE 21.0------- 60.8- 57.2- 8.7-
2026-05-02 08:55 amNNE 22.9 28.9------ 60.8- 55.4- 8.7-
2026-05-02 08:30 amNNE 25.1------- 59.0- 55.4- 8.7-
2026-05-02 08:10 amNNE 27.0------- 59.0- 55.4- 8.7-
2026-05-02 07:55 amNNE 28.0 33.0------ 59.0- 55.4- 8.7-
2026-05-02 07:30 amNNE 25.1 29.9------ 59.0- 55.4- 8.7-
2026-05-02 07:15 am N 26.0 34.0------ 59.0- 55.4- 8.7-
2026-05-02 06:55 amNNE 28.0 33.0------ 59.0- 55.4- 8.7-
2026-05-02 06:35 amNNE 28.9------- 57.2- 55.4- 8.7-
2026-05-02 06:15 amNNE 25.1 32.1------ 57.2- 55.4- 8.7-
2026-05-02 05:55 am N 27.0 35.9------ 57.2- 55.4- 8.7-
2026-05-02 05:35 am N 24.1 31.1------ 59.0- 55.4- 8.7-
2026-05-02 05:15 am N 24.1 28.9------ 59.0- 57.2- 8.7-
2026-05-02 04:55 am N 27.0------- 59.0- 57.2- 8.7-
2026-05-02 04:35 am N 24.1 29.9------ 60.8- 57.2- 8.7-
2026-05-02 04:15 am N 18.1 25.1------ 60.8- 59.0- 8.7-
2026-05-02 03:50 am NE 20.0------- 60.8- 59.0- 8.7-
2026-05-02 03:30 amNNE 21.0------- 59.0- 57.2- 8.7-
2026-05-02 03:15 amNNE 21.0 28.0------ 60.8- 59.0- 7.8-
2026-05-02 02:55 am N 21.0 28.9------ 62.6- 59.0- 7.8-
2026-05-02 02:30 am N 20.0 28.0------ 62.6- 60.8- 8.7-
2026-05-02 02:15 am N 20.0 26.0------ 62.6- 60.8- 8.7-
2026-05-02 01:55 am N 18.1 26.0------ 64.4- 60.8- 5.2-
2026-05-02 01:35 am N 19.0 31.1------ 64.4- 62.6- 8.7-
2026-05-02 01:15 am N 15.9 28.0------ 64.4- 62.6- 8.7-
2026-05-02 12:55 am N 19.0 26.0------ 64.4- 62.6- 8.7-
2026-05-02 12:35 amNNE 18.1------- 66.2- 64.4- 8.7-
2026-05-02 12:15 am NE 19.0 24.1------ 66.2- 62.6- 8.7-
2026-05-01 11:55 pm NE 22.0------- 66.2- 64.4- 8.7-
2026-05-01 11:35 pmENE 8.0 25.1------ 68.0- 64.4- 8.7-
2026-05-01 11:15 pmENE 11.1 24.1------ 68.0- 64.4- 8.7-
2026-05-01 10:55 pmENE 12.0 34.0------ 68.0- 64.4- 8.7-
2026-05-01 10:35 pmENE 13.0 26.0------ 66.2- 64.4- 8.7-
2026-05-01 10:15 pmENE 14.0 25.1------ 66.2- 62.6---
2026-05-01 09:55 pm NE 15.0 29.9------ 66.2- 62.6- 8.7-
2026-05-01 09:35 pmENE 17.1 31.1------ 66.2- 62.6- 8.7-
2026-05-01 09:15 pm NE 27.0 35.9------ 64.4- 62.6- 8.7-
2026-05-01 08:55 pm NE 33.0 40.0------ 66.2- 62.6- 8.7-
2026-05-01 08:35 pm NE 31.1 38.1------ 64.4- 62.6- 8.7-
2026-05-01 08:15 pm NE 34.0 39.0------ 64.4- 64.4- 8.7-
2026-05-01 07:55 pm NE 34.0------- 64.4- 64.4- 2.6-
2026-05-01 07:35 pm NE 32.1------- 64.4- 64.4- 1.1-
2026-05-01 07:15 pm NE 28.0 33.0------ 64.4- 64.4- 1.1-
2026-05-01 06:55 pmNNE 34.0------- 64.4- 62.6- 0.2-
2026-05-01 06:35 pmNNE 32.1------- 64.4- 62.6- 1.7-
2026-05-01 06:15 pmNNE 34.0 40.0------ 66.2- 64.4- 4.3-
2026-05-01 05:55 pmNNE 34.0 40.0------ 66.2- 64.4- 7.0-
2026-05-01 05:35 pmNNE 28.9 35.0------ 66.2- 64.4- 4.3-
2026-05-01 05:15 pmNNE 29.9 36.9------ 68.0- 64.4- 4.3-
2026-05-01 04:55 pmNNE 29.9 35.9------ 68.0- 66.2- 7.8-
2026-05-01 04:35 pmNNE 24.1 28.9------ 71.6- 69.8- 7.0-
2026-05-01 04:15 pmNNE 17.1------- 73.4- 71.6- 5.2-
2026-05-01 03:55 pm S 2.9------- 78.8- 75.2- 7.0-
2026-05-01 03:35 pm- 0.0------- 78.8- 75.2- 7.0-
2026-05-01 03:15 pmSSE 5.1------- 78.8- 75.2- 7.0-
2026-05-01 02:55 pmSSE 7.0------- 78.8- 73.4- 7.0-
2026-05-01 02:35 pm S 8.0------- 78.8- 73.4- 7.8-
2026-05-01 02:15 pm S 11.1------- 78.8- 73.4---
2026-05-01 01:55 pmSSE 12.0------- 78.8- 73.4- 7.0-
2026-05-01 01:35 pmSSE 15.9------- 78.8- 73.4- 7.0-
2026-05-01 01:15 pm SE 9.9------- 77.0- 73.4- 5.2-
2026-05-01 12:55 pmESE 11.1------- 75.2- 71.6- 7.0-
2026-05-01 12:35 pmESE 15.9------- 75.2- 69.8- 7.0-